Time;durP1;ratioP1;P1;durP2;ratioP2;P2;SDS_P1;SDS_P2;PMS_P1;PMS_P2;Temp;Humidity;BMP_temperature;BMP_pressure;BME280_temperature;BME280_humidity;BME280_pressure;Samples;Min_cycle;Max_cycle;Signal;HPM_P1;HPM_P2
2021/12/29 00:00:23;;;;;;;61.80;21.88;;;;;;;;;;5049642;28;20045;-62
2021/12/29 00:02:49;;;;;;;60.65;22.83;;;7.60;99.90;;;;;;5049172;28;20056;-62
2021/12/29 00:05:16;;;;;;;58.38;23.30;;;;;;;;;;5049040;28;20044;-62
2021/12/29 00:07:42;;;;;;;67.38;23.13;;;7.60;99.90;;;;;;5050070;28;20041;-62
2021/12/29 00:10:08;;;;;;;61.55;22.75;;;8.10;99.90;;;;;;5051164;28;20518;-62
2021/12/29 00:12:40;;;;;;;65.75;23.38;;;;;;;;;;5053286;28;20095;-62
2021/12/29 00:15:11;;;;;;;74.10;25.08;;;7.50;99.90;;;;;;5053623;28;20116;-62
2021/12/29 00:17:39;;;;;;;81.50;27.02;;;7.50;99.90;;;;;;5053265;28;20048;-62
2021/12/29 00:20:10;;;;;;;77.28;23.70;;;7.70;99.90;;;;;;5052512;28;20700;-62
2021/12/29 00:22:58;;;;;;;71.43;22.40;;;8.30;99.90;;;;;;5051977;28;20037;-62
2021/12/29 00:25:24;;;;;;;73.13;23.25;;;;;;;;;;5052309;28;20154;-62
2021/12/29 00:27:52;;;;;;;106.72;26.80;;;;;;;;;;5053754;28;20057;-62
2021/12/29 00:30:18;;;;;;;73.43;23.60;;;;;;;;;;5052755;28;20041;-62
2021/12/29 00:32:45;;;;;;;89.15;24.27;;;;;;;;;;5053642;28;20050;-62
2021/12/29 00:35:14;;;;;;;102.72;24.77;;;7.60;99.90;;;;;;5052212;28;20041;-62
2021/12/29 00:37:40;;;;;;;79.40;24.45;;;;;;;;;;5053533;28;20037;-62
2021/12/29 00:40:06;;;;;;;77.55;22.45;;;8.00;99.90;;;;;;5052845;28;20052;-62
2021/12/29 00:42:32;;;;;;;99.13;24.42;;;7.70;99.90;;;;;;5053487;28;20036;-62
2021/12/29 00:44:58;;;;;;;97.25;23.88;;;;;;;;;;5052135;28;20496;-62
2021/12/29 00:47:24;;;;;;;97.97;23.85;;;;;;;;;;5053344;28;20077;-62
2021/12/29 00:49:50;;;;;;;107.30;24.75;;;;;;;;;;5035219;28;20038;-61
2021/12/29 01:00:03;;;;;;;96.22;22.60;;;;;;;;;;5037444;28;20049;-89
2021/12/29 01:02:44;;;;;;;120.13;26.67;;;;;;;;;;5045746;28;20052;-90
2021/12/29 01:12:27;;;;;;;90.60;20.67;;;7.60;99.90;;;;;;5055089;22;20048;-58
2021/12/29 01:14:54;;;;;;;80.15;19.65;;;;;;;;;;5071645;28;20051;-59
2021/12/29 01:17:20;;;;;;;69.10;20.02;;;;;;;;;;5059693;28;20800;-58
2021/12/29 01:19:47;;;;;;;83.05;20.58;;;;;;;;;;5052044;28;20041;-58
2021/12/29 01:22:13;;;;;;;63.20;18.52;;;;;;;;;;5033488;28;20499;-57
2021/12/29 01:24:39;;;;;;;37.35;14.38;;;;;;;;;;5051417;28;20044;-59
2021/12/29 01:27:05;;;;;;;52.60;18.05;;;;;;;;;;5051870;28;20140;-58
2021/12/29 01:29:31;;;;;;;57.03;20.40;;;;;;;;;;5051986;28;20499;-58
2021/12/29 01:31:58;;;;;;;47.85;19.55;;;8.50;99.90;;;;;;5051887;28;20036;-58
2021/12/29 01:34:24;;;;;;;49.40;18.48;;;7.90;99.90;;;;;;5033228;28;20067;-57
2021/12/29 01:36:50;;;;;;;46.08;17.10;;;;;;;;;;5051983;28;20083;-58
2021/12/29 01:39:17;;;;;;;40.83;16.90;;;;;;;;;;5052363;28;20053;-59
2021/12/29 01:41:44;;;;;;;43.58;17.70;;;;;;;;;;5051592;28;20049;-58
2021/12/29 01:44:10;;;;;;;47.95;18.30;;;;;;;;;;5051777;28;20071;-58
2021/12/29 01:46:37;;;;;;;35.97;16.00;;;;;;;;;;5051220;28;20041;-58
2021/12/29 01:49:03;;;;;;;36.63;15.63;;;;;;;;;;5052009;28;20043;-58
2021/12/29 01:51:30;;;;;;;28.92;13.65;;;;;;;;;;5051183;28;20045;-57
2021/12/29 01:54:14;;;;;;;33.65;15.55;;;;;;;;;;5051547;28;20045;-57
2021/12/29 01:56:43;;;;;;;30.83;14.55;;;;;;;;;;5051625;28;20047;-59
2021/12/29 01:59:08;;;;;;;34.35;16.00;;;8.20;99.90;;;;;;5051365;28;20045;-58
2021/12/29 02:01:34;;;;;;;37.80;18.25;;;;;;;;;;5050426;28;20043;-58
2021/12/29 02:04:00;;;;;;;42.35;18.55;;;;;;;;;;5050865;28;20045;-59
2021/12/29 02:06:26;;;;;;;43.88;18.65;;;8.20;99.90;;;;;;5049878;28;20457;-58
2021/12/29 02:08:55;;;;;;;37.75;17.27;;;8.20;99.90;;;;;;5051128;28;20562;-59
2021/12/29 02:11:29;;;;;;;28.65;16.55;;;;;;;;;;5050982;28;20401;-59
2021/12/29 02:14:00;;;;;;;31.23;16.92;;;;;;;;;;5051505;28;20036;-58
2021/12/29 02:16:26;;;;;;;35.20;16.92;;;;;;;;;;5050140;28;20075;-57
2021/12/29 02:18:54;;;;;;;32.55;16.42;;;8.60;99.90;;;;;;5051074;28;20234;-59
2021/12/29 02:21:24;;;;;;;27.83;15.32;;;;;;;;;;5033531;28;20079;-58
2021/12/29 02:26:38;;;;;;;24.75;14.40;;;7.60;99.90;;;;;;5050409;28;20132;-58
2021/12/29 02:29:05;;;;;;;28.80;15.40;;;;;;;;;;5033097;28;20469;-58
2021/12/29 02:31:31;;;;;;;31.73;16.48;;;;;;;;;;5051188;28;20116;-58
2021/12/29 02:33:58;;;;;;;31.05;15.48;;;;;;;;;;5050608;28;20051;-58
2021/12/29 02:36:24;;;;;;;27.98;15.50;;;8.10;99.90;;;;;;5050009;28;20037;-58
2021/12/29 02:38:54;;;;;;;36.03;17.23;;;;;;;;;;5033354;28;20036;-58
2021/12/29 02:41:21;;;;;;;29.92;15.55;;;;;;;;;;5050852;28;20036;-59
2021/12/29 02:43:48;;;;;;;31.38;16.30;;;;;;;;;;5049823;28;20487;-59
2021/12/29 02:46:16;;;;;;;27.77;15.43;;;7.70;99.90;;;;;;5049735;28;20064;-58
2021/12/29 02:48:49;;;;;;;25.17;14.40;;;;;;;;;;5051035;28;20112;-58
2021/12/29 02:51:15;;;;;;;31.17;15.20;;;;;;;;;;5050589;28;20048;-59
2021/12/29 02:53:41;;;;;;;28.52;15.60;;;;;;;;;;5050908;28;20043;-58
2021/12/29 02:56:07;;;;;;;28.10;16.00;;;;;;;;;;5049312;28;20048;-56
2021/12/29 02:58:33;;;;;;;30.08;16.25;;;8.10;99.90;;;;;;5050981;28;20049;-58
2021/12/29 03:01:01;;;;;;;34.33;16.55;;;;;;;;;;5049125;28;20044;-59
2021/12/29 03:03:28;;;;;;;31.98;17.60;;;;;;;;;;5050927;28;20099;-58
2021/12/29 03:05:54;;;;;;;31.63;16.75;;;;;;;;;;5049351;28;20044;-59
2021/12/29 03:08:21;;;;;;;37.75;19.20;;;;;;;;;;5050517;28;20048;-59
2021/12/29 03:10:52;;;;;;;25.17;14.85;;;;;;;;;;5050116;28;20068;-59
2021/12/29 03:13:18;;;;;;;32.75;17.70;;;;;;;;;;5050178;28;20458;-58
2021/12/29 03:15:44;;;;;;;36.47;19.45;;;8.10;99.90;;;;;;5050039;28;20064;-59
2021/12/29 03:18:10;;;;;;;28.75;16.48;;;;;;;;;;5050159;28;20398;-59
2021/12/29 03:20:36;;;;;;;35.58;20.02;;;;;;;;;;5049971;28;20087;-58
2021/12/29 03:23:02;;;;;;;34.50;18.08;;;;;;;;;;5050158;28;20048;-59
2021/12/29 03:25:28;;;;;;;35.05;18.30;;;;;;;;;;5049686;28;20041;-59
2021/12/29 03:27:58;;;;;;;36.85;18.08;;;8.00;99.90;;;;;;5049720;28;20047;-57
2021/12/29 03:30:26;;;;;;;35.92;17.98;;;8.00;99.90;;;;;;5050550;28;20075;-59
2021/12/29 03:33:02;;;;;;;32.60;15.20;;;7.60;99.90;;;;;;5050107;28;20064;-59
2021/12/29 03:35:28;;;;;;;31.90;15.68;;;;;;;;;;5049624;28;20048;-59
2021/12/29 03:37:54;;;;;;;39.97;17.08;;;;;;;;;;5049461;28;20391;-58
2021/12/29 03:40:20;;;;;;;34.35;15.90;;;;;;;;;;5050395;28;20045;-59
2021/12/29 03:42:46;;;;;;;35.35;15.75;;;;;;;;;;5049947;28;20037;-58
2021/12/29 03:45:12;;;;;;;32.13;15.80;;;;;;;;;;5050842;28;20124;-59
2021/12/29 03:47:38;;;;;;;32.67;15.52;;;7.90;99.90;;;;;;5054319;28;20473;-59
2021/12/29 03:50:04;;;;;;;32.90;15.38;;;;;;;;;;5054103;28;20040;-59
2021/12/29 03:52:30;;;;;;;33.42;16.33;;;;;;;;;;5054027;28;20094;-59
2021/12/29 03:54:55;;;;;;;36.83;15.77;;;8.20;99.90;;;;;;5053066;28;20041;-59
2021/12/29 03:57:21;;;;;;;27.70;14.20;;;;;;;;;;5054208;28;20040;-59
2021/12/29 03:59:47;;;;;;;34.25;15.50;;;;;;;;;;5053706;28;20613;-59
2021/12/29 04:02:13;;;;;;;28.23;13.80;;;8.10;99.90;;;;;;5053593;28;20052;-59
2021/12/29 04:04:39;;;;;;;28.33;13.85;;;;;;;;;;5053252;28;20128;-57
2021/12/29 04:07:08;;;;;;;30.13;13.25;;;8.10;99.90;;;;;;5053618;28;20044;-58
2021/12/29 04:09:33;;;;;;;24.85;13.63;;;8.10;99.90;;;;;;5053533;28;20036;-59
2021/12/29 04:11:59;;;;;;;26.50;13.85;;;8.10;99.90;;;;;;5053366;28;20037;-58
2021/12/29 04:14:28;;;;;;;28.92;15.07;;;;;;;;;;5052902;28;20041;-59
2021/12/29 04:16:57;;;;;;;31.08;15.75;;;;;;;;;;5053635;28;20047;-56
2021/12/29 04:19:29;;;;;;;29.23;15.57;;;;;;;;;;5053160;28;20045;-59
2021/12/29 04:21:57;;;;;;;28.20;15.10;;;;;;;;;;5053308;28;20106;-59
2021/12/29 04:24:23;;;;;;;31.75;16.13;;;;;;;;;;5053101;28;20037;-59
2021/12/29 04:26:48;;;;;;;33.83;16.00;;;8.20;99.90;;;;;;5053017;28;20422;-59
2021/12/29 04:29:14;;;;;;;35.20;16.98;;;;;;;;;;5053041;28;20039;-59
2021/12/29 04:31:41;;;;;;;30.05;15.27;;;;;;;;;;5053511;28;20414;-59
2021/12/29 04:34:07;;;;;;;34.80;16.90;;;;;;;;;;5053168;28;20071;-59
2021/12/29 04:36:33;;;;;;;34.33;17.25;;;8.20;99.90;;;;;;5052974;28;20045;-59
2021/12/29 04:39:01;;;;;;;38.13;16.30;;;8.00;99.90;;;;;;5052854;28;20037;-60
2021/12/29 04:41:27;;;;;;;35.95;15.80;;;;;;;;;;5053355;28;20384;-59
2021/12/29 04:43:53;;;;;;;37.67;16.80;;;;;;;;;;5052947;28;20048;-59
2021/12/29 04:46:27;;;;;;;39.10;16.98;;;;;;;;;;5051635;28;20040;-59
2021/12/29 04:48:59;;;;;;;40.13;17.70;;;8.00;99.90;;;;;;5053454;28;20048;-59
2021/12/29 04:51:33;;;;;;;34.92;14.95;;;;;;;;;;5051655;28;20119;-59
2021/12/29 04:53:59;;;;;;;42.38;17.02;;;;;;;;;;5052410;28;20060;-59
2021/12/29 04:56:25;;;;;;;43.03;16.83;;;;;;;;;;5052191;28;20060;-59
2021/12/29 04:58:51;;;;;;;43.13;17.52;;;8.10;99.90;;;;;;5052947;28;20491;-59
2021/12/29 05:01:16;;;;;;;39.60;16.65;;;8.20;99.90;;;;;;5052412;28;20112;-60
2021/12/29 05:03:44;;;;;;;45.78;17.52;;;;;;;;;;5052275;28;20070;-59
2021/12/29 05:08:36;;;;;;;44.15;18.90;;;8.20;99.90;;;;;;5052842;28;20045;-59
2021/12/29 05:11:03;;;;;;;54.30;18.13;;;;;;;;;;5052206;28;20095;-59
2021/12/29 05:13:31;;;;;;;46.90;17.38;;;;;;;;;;5051890;28;20033;-59
2021/12/29 05:15:57;;;;;;;44.15;17.23;;;;;;;;;;5050960;28;20107;-60
2021/12/29 05:18:27;;;;;;;48.78;17.80;;;;;;;;;;5052522;28;20453;-59
2021/12/29 05:20:54;;;;;;;42.72;16.90;;;;;;;;;;5051927;28;20041;-60
2021/12/29 05:23:20;;;;;;;44.47;17.92;;;8.80;99.90;;;;;;5051772;28;20522;-59
2021/12/29 05:25:46;;;;;;;40.70;18.33;;;;;;;;;;5057244;28;20040;-61
2021/12/29 05:28:12;;;;;;;47.20;17.58;;;;;;;;;;5071971;28;20040;-60
2021/12/29 05:30:39;;;;;;;46.88;18.35;;;7.70;99.90;;;;;;5072107;28;20036;-59
2021/12/29 05:33:05;;;;;;;43.25;17.33;;;8.10;99.90;;;;;;5071915;28;20044;-60
2021/12/29 05:35:31;;;;;;;49.92;18.42;;;;;;;;;;5037469;28;20071;-60
2021/12/29 05:37:57;;;;;;;47.65;19.10;;;;;;;;;;5072039;28;20177;-60
2021/12/29 05:40:24;;;;;;;53.60;19.83;;;7.90;99.90;;;;;;5054198;28;20048;-60
2021/12/29 05:42:50;;;;;;;54.53;20.23;;;8.20;99.90;;;;;;5071301;28;20528;-60
2021/12/29 05:45:16;;;;;;;55.65;20.75;;;;;;;;;;5071090;28;20102;-60
2021/12/29 05:47:43;;;;;;;47.28;18.45;;;8.20;99.90;;;;;;5071596;28;20036;-60
2021/12/29 05:50:13;;;;;;;56.45;19.10;;;7.40;99.90;;;;;;5067004;28;20043;-60
2021/12/29 05:52:40;;;;;;;59.67;20.17;;;;;;;;;;5055992;28;20049;-59
2021/12/29 05:55:06;;;;;;;64.47;21.10;;;8.10;99.90;;;;;;5059540;28;20045;-59
2021/12/29 05:57:32;;;;;;;52.47;19.08;;;7.90;99.90;;;;;;5069856;28;20049;-60
2021/12/29 05:59:58;;;;;;;51.28;19.35;;;;;;;;;;5052266;28;20053;-60
2021/12/29 06:02:24;;;;;;;52.42;18.48;;;;;;;;;;5070558;28;20639;-59
2021/12/29 06:04:50;;;;;;;44.42;17.48;;;;;;;;;;5069678;28;20043;-60
2021/12/29 06:07:16;;;;;;;42.08;18.13;;;;;;;;;;5069405;28;20028;-60
2021/12/29 06:09:43;;;;;;;47.42;18.33;;;;;;;;;;5050520;28;20407;-59
2021/12/29 06:12:09;;;;;;;48.70;18.00;;;;;;;;;;5051036;28;20041;-59
2021/12/29 06:14:35;;;;;;;48.50;19.20;;;;;;;;;;5051601;28;20045;-60
2021/12/29 06:17:01;;;;;;;42.42;16.25;;;;;;;;;;5068815;28;20414;-59
2021/12/29 06:19:27;;;;;;;57.40;20.02;;;;;;;;;;5051693;28;20055;-59
2021/12/29 06:21:53;;;;;;;41.20;17.15;;;;;;;;;;5052517;28;20049;-60
2021/12/29 06:24:19;;;;;;;50.08;17.70;;;8.10;99.90;;;;;;5068686;28;20036;-59
2021/12/29 06:26:44;;;;;;;42.63;17.55;;;7.90;99.90;;;;;;5069710;28;20090;-60
2021/12/29 06:29:11;;;;;;;51.65;18.30;;;;;;;;;;5051765;28;20401;-59
2021/12/29 06:31:37;;;;;;;48.67;17.73;;;8.10;99.90;;;;;;5070072;28;20127;-60
2021/12/29 06:34:03;;;;;;;50.50;18.42;;;;;;;;;;5051664;28;20120;-59
2021/12/29 06:36:29;;;;;;;44.60;18.20;;;8.60;99.90;;;;;;5068283;28;20036;-59
2021/12/29 06:38:55;;;;;;;47.15;18.73;;;;;;;;;;5068435;28;20086;-59
2021/12/29 06:41:21;;;;;;;53.03;18.05;;;;;;;;;;5069146;28;20044;-59
2021/12/29 06:43:47;;;;;;;52.08;17.45;;;;;;;;;;5069044;28;20032;-59
2021/12/29 06:46:13;;;;;;;57.65;18.83;;;;;;;;;;5067889;28;20581;-59
2021/12/29 06:48:39;;;;;;;42.92;17.13;;;;;;;;;;5068019;28;20101;-60
2021/12/29 06:51:05;;;;;;;49.25;18.98;;;;;;;;;;5144747;22;20451;-62
2021/12/29 06:53:32;;;;;;;54.20;18.08;;;7.90;99.90;;;;;;5051469;28;20163;-62
2021/12/29 06:55:58;;;;;;;57.10;19.80;;;;;;;;;;5050294;28;20040;-62
2021/12/29 06:58:24;;;;;;;62.03;19.05;;;;;;;;;;5051146;28;20045;-62
2021/12/29 07:00:50;;;;;;;61.40;19.67;;;;;;;;;;5050740;28;20048;-62
2021/12/29 07:03:15;;;;;;;61.47;17.60;;;8.30;99.90;;;;;;5050915;28;20162;-62
2021/12/29 07:05:41;;;;;;;62.08;19.02;;;;;;;;;;5050263;28;20048;-62
2021/12/29 07:08:07;;;;;;;63.45;19.70;;;8.20;99.90;;;;;;5033316;28;20033;-62
2021/12/29 07:10:33;;;;;;;65.10;21.75;;;;;;;;;;5050752;28;20445;-63
2021/12/29 07:12:59;;;;;;;61.97;19.60;;;;;;;;;;5050452;28;20048;-63
2021/12/29 07:15:25;;;;;;;56.67;20.45;;;;;;;;;;5050472;28;20496;-62
2021/12/29 07:17:51;;;;;;;61.75;20.20;;;8.10;99.90;;;;;;5050751;28;20040;-62
2021/12/29 07:20:17;;;;;;;62.58;19.63;;;;;;;;;;5050609;28;20610;-63
2021/12/29 07:22:42;;;;;;;54.47;18.33;;;8.20;99.90;;;;;;5050607;28;20037;-63
2021/12/29 07:25:08;;;;;;;55.75;19.25;;;;;;;;;;5050352;28;20072;-62
2021/12/29 07:27:34;;;;;;;66.10;20.02;;;;;;;;;;5050383;28;20041;-62
2021/12/29 07:30:00;;;;;;;60.97;20.90;;;;;;;;;;5050234;28;20035;-62
2021/12/29 07:32:27;;;;;;;62.58;21.15;;;;;;;;;;5050672;28;20752;-62
2021/12/29 07:34:53;;;;;;;60.80;19.58;;;;;;;;;;5050116;28;20127;-62
2021/12/29 07:37:19;;;;;;;61.60;19.58;;;;;;;;;;5050250;28;20098;-62
2021/12/29 07:39:45;;;;;;;63.95;20.33;;;;;;;;;;5050727;28;20041;-63
2021/12/29 07:42:11;;;;;;;67.20;22.58;;;;;;;;;;5050676;28;20041;-62
2021/12/29 07:44:39;;;;;;;77.60;22.73;;;;;;;;;;5032008;28;20417;-62
2021/12/29 07:47:06;;;;;;;74.65;21.38;;;8.10;99.90;;;;;;5050033;28;20037;-62
2021/12/29 07:49:32;;;;;;;80.72;23.08;;;;;;;;;;5050765;28;20040;-62
2021/12/29 07:51:58;;;;;;;74.45;19.70;;;;;;;;;;5049272;28;20086;-63
2021/12/29 07:54:23;;;;;;;57.60;16.83;;;8.10;99.90;;;;;;5047344;28;20037;-62
2021/12/29 07:56:49;;;;;;;58.95;18.98;;;8.20;99.90;;;;;;5048201;28;20056;-62
2021/12/29 07:59:15;;;;;;;64.47;17.42;;;;;;;;;;5048363;28;20078;-62
2021/12/29 08:01:42;;;;;;;65.70;19.25;;;;;;;;;;5048782;28;20056;-62
2021/12/29 08:04:12;;;;;;;52.15;16.40;;;;;;;;;;5049206;28;20037;-62
2021/12/29 08:06:38;;;;;;;47.83;15.27;;;8.10;99.90;;;;;;5048415;28;20067;-62
2021/12/29 08:09:06;;;;;;;44.35;14.43;;;8.30;99.90;;;;;;5032631;28;20112;-62
2021/12/29 08:11:32;;;;;;;37.92;13.25;;;;;;;;;;5049934;28;20041;-62
2021/12/29 08:13:58;;;;;;;41.67;14.48;;;8.00;99.90;;;;;;5050137;28;20167;-62
2021/12/29 08:16:24;;;;;;;46.97;14.18;;;;;;;;;;5049601;28;20044;-64
2021/12/29 08:18:50;;;;;;;37.00;14.63;;;;;;;;;;5032479;28;20045;-62
2021/12/29 08:21:16;;;;;;;33.58;12.60;;;;;;;;;;5049897;28;20132;-63
2021/12/29 08:23:42;;;;;;;33.58;12.55;;;;;;;;;;5050329;28;20041;-62
2021/12/29 08:26:08;;;;;;;36.78;12.98;;;;;;;;;;5049231;28;20400;-62
2021/12/29 08:28:33;;;;;;;32.95;11.85;;;8.30;99.90;;;;;;5015450;28;20111;-63
2021/12/29 08:30:59;;;;;;;24.88;10.80;;;8.10;99.90;;;;;;5051231;28;20438;-62
2021/12/29 08:33:25;;;;;;;29.17;12.73;;;;;;;;;;5053546;28;20101;-63
2021/12/29 08:35:51;;;;;;;27.48;10.52;;;;;;;;;;5051958;28;20617;-63
2021/12/29 08:38:18;;;;;;;30.02;10.88;;;;;;;;;;5053152;28;20117;-62
2021/12/29 08:40:44;;;;;;;24.70;10.45;;;;;;;;;;5051873;28;20033;-63
2021/12/29 08:43:11;;;;;;;24.70;10.98;;;;;;;;;;5043603;28;20467;-62
2021/12/29 08:45:37;;;;;;;25.65;9.43;;;8.00;99.90;;;;;;5032615;28;20045;-62
2021/12/29 08:48:03;;;;;;;22.60;10.10;;;8.10;99.90;;;;;;5053310;28;20457;-63
2021/12/29 08:50:32;;;;;;;24.83;10.52;;;8.10;99.90;;;;;;5052901;28;20037;-62
2021/12/29 08:52:59;;;;;;;25.25;11.10;;;;;;;;;;5053182;28;20048;-62
2021/12/29 08:55:27;;;;;;;25.10;11.63;;;8.30;99.90;;;;;;5052894;28;20048;-62
2021/12/29 08:57:53;;;;;;;23.77;10.98;;;;;;;;;;5052787;28;20095;-62
2021/12/29 09:00:19;;;;;;;29.10;10.82;;;;;;;;;;5052870;28;20123;-63
2021/12/29 09:02:45;;;;;;;26.77;11.63;;;;;;;;;;5053068;28;20051;-62
2021/12/29 09:05:12;;;;;;;23.80;11.05;;;7.60;99.90;;;;;;5051849;28;20052;-63
2021/12/29 09:07:41;;;;;;;23.17;10.18;;;;;;;;;;5038886;28;20118;-62
2021/12/29 09:10:07;;;;;;;21.33;9.60;;;8.00;99.90;;;;;;5049007;28;20029;-63
2021/12/29 09:12:33;;;;;;;19.98;8.02;;;8.10;99.90;;;;;;5054125;28;20128;-63
2021/12/29 09:14:59;;;;;;;21.88;9.93;;;8.20;99.90;;;;;;5053978;28;20531;-63
2021/12/29 09:17:25;;;;;;;22.48;8.25;;;;;;;;;;5054423;28;20033;-63
2021/12/29 09:19:51;;;;;;;18.83;7.43;;;;;;;;;;5056405;28;20032;-62
2021/12/29 09:22:17;;;;;;;17.08;7.22;;;;;;;;;;5049152;28;20402;-62
2021/12/29 09:24:45;;;;;;;20.13;9.15;;;;;;;;;;5038486;28;20047;-62
2021/12/29 09:27:11;;;;;;;17.27;7.40;;;8.10;99.90;;;;;;5051710;28;20045;-62
2021/12/29 09:29:37;;;;;;;17.05;6.95;;;;;;;;;;5051454;28;20116;-62
2021/12/29 09:32:04;;;;;;;21.65;7.43;;;8.20;99.90;;;;;;5049681;28;20387;-62
2021/12/29 09:34:34;;;;;;;23.00;7.15;;;8.00;99.90;;;;;;5045655;28;20045;-63
2021/12/29 09:37:01;;;;;;;15.57;6.45;;;7.60;99.90;;;;;;5043467;28;20072;-63
2021/12/29 09:39:27;;;;;;;15.00;6.30;;;8.00;99.90;;;;;;5039686;28;20515;-62
2021/12/29 09:41:53;;;;;;;17.77;6.20;;;7.80;99.90;;;;;;5045161;28;20039;-62
2021/12/29 09:44:19;;;;;;;18.20;5.90;;;;;;;;;;5043026;28;20107;-63
2021/12/29 09:46:45;;;;;;;19.23;6.72;;;8.00;99.90;;;;;;5053654;28;20032;-63
2021/12/29 09:49:11;;;;;;;24.02;8.13;;;;;;;;;;5040438;28;20029;-63
2021/12/29 09:51:37;;;;;;;19.48;6.70;;;8.00;99.90;;;;;;5058452;28;20028;-63
2021/12/29 09:54:03;;;;;;;24.65;7.43;;;7.90;99.90;;;;;;5071586;28;20072;-64
2021/12/29 09:56:29;;;;;;;25.45;7.85;;;;;;;;;;5071565;28;20405;-63
2021/12/29 09:58:56;;;;;;;21.48;7.20;;;7.80;99.90;;;;;;5071363;28;20044;-63
2021/12/29 10:01:22;;;;;;;24.00;7.80;;;;;;;;;;5071974;28;20048;-63
2021/12/29 10:03:48;;;;;;;21.58;7.53;;;;;;;;;;5071190;28;20040;-63
2021/12/29 10:06:14;;;;;;;20.45;6.03;;;8.50;99.90;;;;;;5070949;28;20601;-63
2021/12/29 10:08:42;;;;;;;19.20;6.47;;;;;;;;;;5071079;28;20032;-63
2021/12/29 10:11:29;;;;;;;16.73;5.97;;;8.80;99.90;;;;;;5053217;28;20032;-63
2021/12/29 10:13:56;;;;;;;20.67;6.93;;;8.10;99.90;;;;;;5071607;28;20116;-63
2021/12/29 10:16:24;;;;;;;22.65;7.65;;;;;;;;;;5070503;28;20086;-63
2021/12/29 10:18:58;;;;;;;22.50;5.80;;;8.80;99.90;;;;;;5053542;28;20037;-63
2021/12/29 10:21:26;;;;;;;18.67;6.77;;;8.00;99.90;;;;;;5071200;28;20063;-63
2021/12/29 10:23:53;;;;;;;16.23;7.40;;;;;;;;;;5071653;28;20044;-63
2021/12/29 10:26:26;;;;;;;17.48;6.93;;;8.10;99.90;;;;;;5070209;28;20043;-63
2021/12/29 10:28:54;;;;;;;19.83;6.45;;;;;;;;;;5071412;28;20037;-63
2021/12/29 10:31:21;;;;;;;15.57;6.65;;;;;;;;;;5070416;28;20048;-63
2021/12/29 10:33:52;;;;;;;13.80;6.13;;;;;;;;;;5071638;28;20032;-63
2021/12/29 10:36:24;;;;;;;14.05;6.85;;;;;;;;;;5070473;28;20094;-63
2021/12/29 10:38:55;;;;;;;23.38;7.38;;;;;;;;;;5053263;28;20514;-63
2021/12/29 10:41:21;;;;;;;19.63;6.53;;;;;;;;;;5053489;28;20505;-63
2021/12/29 10:43:52;;;;;;;27.98;7.45;;;7.70;99.90;;;;;;5070770;28;20510;-63
2021/12/29 10:46:22;;;;;;;14.50;6.22;;;;;;;;;;5069966;28;20055;-63
2021/12/29 10:48:53;;;;;;;19.55;6.40;;;7.90;99.90;;;;;;5071503;28;20040;-62
2021/12/29 10:51:19;;;;;;;17.13;5.85;;;;;;;;;;5070841;28;20469;-63
2021/12/29 10:53:45;;;;;;;18.50;6.35;;;;;;;;;;5070517;28;20072;-63
2021/12/29 10:56:24;;;;;;;20.40;6.05;;;7.80;99.90;;;;;;5070458;28;20075;-63
2021/12/29 10:58:52;;;;;;;24.13;7.85;;;8.20;99.90;;;;;;5070969;28;20406;-63
2021/12/29 11:01:20;;;;;;;21.27;6.68;;;;;;;;;;5070443;28;20093;-63
2021/12/29 11:03:48;;;;;;;23.23;7.25;;;;;;;;;;5070598;28;20049;-63
2021/12/29 11:06:16;;;;;;;22.25;6.63;;;;;;;;;;5070103;28;20044;-63
2021/12/29 11:08:46;;;;;;;26.27;6.97;;;;;;;;;;5052640;28;20037;-63
2021/12/29 11:11:13;;;;;;;21.30;6.40;;;;;;;;;;5070152;28;20304;-62
2021/12/29 11:13:41;;;;;;;25.65;8.00;;;;;;;;;;5071037;28;20079;-62
2021/12/29 11:16:07;;;;;;;28.45;7.30;;;;;;;;;;5069896;28;20048;-63
2021/12/29 11:18:50;;;;;;;24.08;7.20;;;;;;;;;;5069846;28;20415;-62
2021/12/29 11:21:29;;;;;;;17.52;6.90;;;;;;;;;;5070549;28;20044;-63
2021/12/29 11:23:55;;;;;;;17.05;6.30;;;;;;;;;;5036004;28;20624;-63
2021/12/29 11:26:31;;;;;;;22.83;6.75;;;;;;;;;;5051442;28;20044;-62
2021/12/29 11:29:12;;;;;;;24.85;6.05;;;;;;;;;;5052913;28;20116;-63
2021/12/29 11:31:43;;;;;;;20.75;5.70;;;;;;;;;;5070327;28;20051;-63
2021/12/29 11:34:35;;;;;;;24.23;5.82;;;;;;;;;;5070147;28;20402;-63
2021/12/29 11:37:10;;;;;;;19.50;5.97;;;8.30;99.90;;;;;;5048239;28;20047;-63
2021/12/29 11:39:38;;;;;;;24.05;6.30;;;;;;;;;;5049780;28;20045;-63
2021/12/29 11:42:05;;;;;;;18.08;5.90;;;;;;;;;;5049456;28;20041;-63
2021/12/29 11:44:34;;;;;;;17.95;4.97;;;8.00;99.90;;;;;;5049146;28;20041;-62
2021/12/29 11:47:00;;;;;;;16.38;4.90;;;8.80;99.90;;;;;;5030841;28;20498;-63
2021/12/29 11:49:26;;;;;;;16.42;5.15;;;;;;;;;;5031574;28;20037;-63
2021/12/29 11:51:56;;;;;;;13.10;5.38;;;;;;;;;;5051344;28;20029;-62
2021/12/29 11:54:32;;;;;;;16.98;5.57;;;;;;;;;;5050168;28;20037;-63
2021/12/29 11:56:58;;;;;;;17.85;5.20;;;;;;;;;;5052103;28;20489;-63
2021/12/29 11:59:31;;;;;;;19.90;5.30;;;7.80;99.90;;;;;;5053719;28;20029;-63
2021/12/29 12:02:02;;;;;;;14.18;4.65;;;8.40;99.90;;;;;;5053598;28;20033;-63
2021/12/29 12:04:28;;;;;;;15.25;4.68;;;;;;;;;;5052049;28;20037;-63
2021/12/29 12:07:07;;;;;;;15.70;5.40;;;8.50;99.90;;;;;;5073101;28;20036;-63
2021/12/29 12:09:50;;;;;;;13.30;5.55;;;8.80;99.90;;;;;;5073337;28;20419;-63
2021/12/29 12:12:16;;;;;;;13.15;5.22;;;;;;;;;;5073400;28;20415;-63
2021/12/29 12:14:46;;;;;;;12.25;5.25;;;;;;;;;;5073311;28;20040;-63
2021/12/29 12:17:25;;;;;;;15.00;4.90;;;8.50;99.90;;;;;;5055352;28;20051;-63
2021/12/29 12:20:16;;;;;;;17.25;4.78;;;8.70;99.90;;;;;;5073110;28;20044;-63
2021/12/29 12:22:53;;;;;;;12.13;4.88;;;8.20;99.90;;;;;;5073696;28;20048;-63
2021/12/29 12:25:20;;;;;;;18.08;5.68;;;;;;;;;;5072768;28;20040;-63
2021/12/29 12:27:50;;;;;;;14.23;5.80;;;;;;;;;;5073533;28;20043;-63
2021/12/29 12:30:16;;;;;;;13.63;4.97;;;;;;;;;;5072675;28;20106;-63
2021/12/29 12:32:42;;;;;;;12.55;5.65;;;;;;;;;;5073821;28;20196;-63
2021/12/29 12:35:08;;;;;;;13.40;5.65;;;;;;;;;;5073031;28;20076;-63
2021/12/29 12:37:42;;;;;;;14.63;4.93;;;;;;;;;;5073275;28;20072;-63
2021/12/29 12:40:24;;;;;;;11.43;4.13;;;8.60;99.90;;;;;;5053656;28;20052;-63
2021/12/29 12:43:00;;;;;;;10.15;4.65;;;8.10;99.90;;;;;;5049896;28;20036;-63
2021/12/29 12:45:26;;;;;;;13.82;4.93;;;;;;;;;;5063538;28;20136;-63
2021/12/29 12:48:01;;;;;;;13.35;4.65;;;;;;;;;;5053600;28;20435;-63
2021/12/29 12:50:28;;;;;;;14.90;6.10;;;8.50;99.90;;;;;;5053003;28;20060;-63
2021/12/29 12:52:56;;;;;;;13.55;4.97;;;8.20;99.90;;;;;;5034603;22;20046;-60
2021/12/29 12:55:23;;;;;;;11.35;4.85;;;;;;;;;;5011280;28;20091;-59
2021/12/29 12:57:50;;;;;;;11.18;4.80;;;8.00;99.90;;;;;;5026287;28;20037;-60
2021/12/29 13:00:18;;;;;;;12.13;5.15;;;8.10;99.90;;;;;;5029656;28;20038;-60
2021/12/29 13:02:50;;;;;;;11.95;6.32;;;;;;;;;;5031832;28;20619;-60
2021/12/29 13:05:15;;;;;;;16.45;5.45;;;8.00;99.90;;;;;;5030403;28;20044;-59
2021/12/29 13:07:43;;;;;;;12.65;6.07;;;7.60;99.90;;;;;;5031911;28;20033;-60
2021/12/29 13:10:12;;;;;;;13.65;5.25;;;7.70;99.90;;;;;;5032191;28;20037;-60
2021/12/29 13:12:40;;;;;;;11.95;5.45;;;;;;;;;;5032329;28;20506;-59
2021/12/29 13:15:16;;;;;;;12.80;6.10;;;;;;;;;;5030951;28;20459;-60
2021/12/29 13:17:43;;;;;;;13.90;5.03;;;;;;;;;;5014056;28;20060;-60
2021/12/29 13:20:11;;;;;;;11.02;5.03;;;;;;;;;;5014828;28;20148;-58
2021/12/29 13:22:38;;;;;;;9.65;4.78;;;;;;;;;;5032126;28;20048;-58
2021/12/29 13:25:08;;;;;;;15.15;5.60;;;;;;;;;;5031817;28;20041;-57
2021/12/29 13:27:34;;;;;;;12.27;6.28;;;;;;;;;;5031555;28;20337;-58
2021/12/29 13:30:02;;;;;;;13.70;5.47;;;;;;;;;;5032485;28;20071;-57
2021/12/29 13:32:28;;;;;;;11.63;5.05;;;7.80;99.90;;;;;;5031883;28;20041;-59
2021/12/29 13:35:05;;;;;;;14.98;6.13;;;;;;;;;;5031335;28;20049;-59
2021/12/29 13:37:31;;;;;;;12.45;6.07;;;;;;;;;;5032063;28;20041;-59
2021/12/29 13:39:57;;;;;;;11.18;6.38;;;;;;;;;;5032384;28;20115;-60
2021/12/29 13:42:23;;;;;;;13.85;5.95;;;;;;;;;;5013375;28;20488;-61
2021/12/29 13:44:50;;;;;;;10.55;5.90;;;;;;;;;;5031444;28;20048;-60
2021/12/29 13:47:23;;;;;;;13.02;5.82;;;;;;;;;;5027296;28;20124;-60
2021/12/29 13:49:49;;;;;;;13.52;5.90;;;8.00;99.90;;;;;;5017991;28;20025;-61
2021/12/29 13:52:15;;;;;;;11.82;5.57;;;;;;;;;;5001402;28;20121;-60
2021/12/29 13:54:41;;;;;;;15.27;5.95;;;;;;;;;;5024100;28;20044;-59
2021/12/29 13:57:08;;;;;;;15.25;6.47;;;;;;;;;;5016446;28;20046;-60
2021/12/29 13:59:34;;;;;;;13.77;6.40;;;;;;;;;;5016283;28;20065;-59
2021/12/29 14:02:05;;;;;;;14.05;6.47;;;7.30;99.90;;;;;;5013309;28;20052;-60
2021/12/29 14:04:43;;;;;;;13.80;7.82;;;8.20;99.90;;;;;;5012366;28;20129;-60
2021/12/29 14:07:16;;;;;;;12.43;6.85;;;7.50;99.90;;;;;;5011850;28;20083;-60